sensor_id;sensor_type;location;lat;lon;timestamp;temperature;humidity
66728;DHT22;53641;44.274;19.890;2022-10-16T00:00:19;12.00;99.90
66728;DHT22;53641;44.274;19.890;2022-10-16T00:02:45;12.10;99.90
66728;DHT22;53641;44.274;19.890;2022-10-16T00:05:25;12.10;99.90
66728;DHT22;53641;44.274;19.890;2022-10-16T00:08:18;12.10;99.90
66728;DHT22;53641;44.274;19.890;2022-10-16T00:11:00;12.20;99.90
66728;DHT22;53641;44.274;19.890;2022-10-16T00:13:41;12.10;99.90
66728;DHT22;53641;44.274;19.890;2022-10-16T00:16:13;12.10;99.90
66728;DHT22;53641;44.274;19.890;2022-10-16T00:18:39;12.20;99.90
66728;DHT22;53641;44.274;19.890;2022-10-16T00:21:13;12.10;99.90
66728;DHT22;53641;44.274;19.890;2022-10-16T00:27:07;12.10;99.90
66728;DHT22;53641;44.274;19.890;2022-10-16T00:30:01;12.20;99.90
66728;DHT22;53641;44.274;19.890;2022-10-16T00:32:52;12.20;99.90
66728;DHT22;53641;44.274;19.890;2022-10-16T00:35:23;12.30;99.90
66728;DHT22;53641;44.274;19.890;2022-10-16T00:37:57;12.30;99.90
66728;DHT22;53641;44.274;19.890;2022-10-16T00:40:46;12.30;99.90
66728;DHT22;53641;44.274;19.890;2022-10-16T00:45:03;12.30;99.90
66728;DHT22;53641;44.274;19.890;2022-10-16T00:46:49;12.30;99.90
66728;DHT22;53641;44.274;19.890;2022-10-16T00:49:18;12.30;99.90
66728;DHT22;53641;44.274;19.890;2022-10-16T00:51:50;12.30;99.90
66728;DHT22;53641;44.274;19.890;2022-10-16T00:54:27;12.20;99.90
66728;DHT22;53641;44.274;19.890;2022-10-16T00:57:07;12.20;99.90
66728;DHT22;53641;44.274;19.890;2022-10-16T01:02:38;12.20;99.90
66728;DHT22;53641;44.274;19.890;2022-10-16T01:05:12;12.20;99.90
66728;DHT22;53641;44.274;19.890;2022-10-16T01:08:52;12.30;99.90
66728;DHT22;53641;44.274;19.890;2022-10-16T01:11:01;12.30;99.90
66728;DHT22;53641;44.274;19.890;2022-10-16T01:13:48;12.20;99.90
66728;DHT22;53641;44.274;19.890;2022-10-16T01:16:58;12.20;99.90
66728;DHT22;53641;44.274;19.890;2022-10-16T01:19:58;12.10;99.90
66728;DHT22;53641;44.274;19.890;2022-10-16T01:22:33;12.20;99.90
66728;DHT22;53641;44.274;19.890;2022-10-16T01:28:55;12.10;99.90
66728;DHT22;53641;44.274;19.890;2022-10-16T01:31:54;12.20;99.90
66728;DHT22;53641;44.274;19.890;2022-10-16T01:35:06;12.10;99.90
66728;DHT22;53641;44.274;19.890;2022-10-16T01:38:00;12.10;99.90
66728;DHT22;53641;44.274;19.890;2022-10-16T01:40:54;12.10;99.90
66728;DHT22;53641;44.274;19.890;2022-10-16T01:46:32;12.10;99.90
66728;DHT22;53641;44.274;19.890;2022-10-16T01:49:04;12.10;99.90
66728;DHT22;53641;44.274;19.890;2022-10-16T01:51:44;12.20;99.90
66728;DHT22;53641;44.274;19.890;2022-10-16T01:54:16;12.20;99.90
66728;DHT22;53641;44.274;19.890;2022-10-16T01:56:55;12.20;99.90
66728;DHT22;53641;44.274;19.890;2022-10-16T01:59:40;12.20;99.90
66728;DHT22;53641;44.274;19.890;2022-10-16T02:02:14;12.20;99.90
66728;DHT22;53641;44.274;19.890;2022-10-16T02:04:57;12.10;99.90
66728;DHT22;53641;44.274;19.890;2022-10-16T02:07:41;12.10;99.90
66728;DHT22;53641;44.274;19.890;2022-10-16T02:10:19;12.20;99.90
66728;DHT22;53641;44.274;19.890;2022-10-16T02:13:09;12.10;99.90
66728;DHT22;53641;44.274;19.890;2022-10-16T02:15:43;12.00;99.90
66728;DHT22;53641;44.274;19.890;2022-10-16T02:18:21;12.10;99.90
66728;DHT22;53641;44.274;19.890;2022-10-16T02:21:19;12.10;99.90
66728;DHT22;53641;44.274;19.890;2022-10-16T02:24:30;12.10;99.90
66728;DHT22;53641;44.274;19.890;2022-10-16T02:27:47;12.00;99.90
66728;DHT22;53641;44.274;19.890;2022-10-16T02:30:34;12.00;99.90
66728;DHT22;53641;44.274;19.890;2022-10-16T02:33:07;12.10;99.90
66728;DHT22;53641;44.274;19.890;2022-10-16T02:35:42;12.10;99.90
66728;DHT22;53641;44.274;19.890;2022-10-16T02:38:12;12.00;99.90
66728;DHT22;53641;44.274;19.890;2022-10-16T02:40:41;12.00;99.90
66728;DHT22;53641;44.274;19.890;2022-10-16T02:46:06;11.90;99.90
66728;DHT22;53641;44.274;19.890;2022-10-16T02:48:34;11.90;99.90
66728;DHT22;53641;44.274;19.890;2022-10-16T02:51:16;11.80;99.90
66728;DHT22;53641;44.274;19.890;2022-10-16T02:54:00;11.90;99.90
66728;DHT22;53641;44.274;19.890;2022-10-16T02:56:32;11.80;99.90
66728;DHT22;53641;44.274;19.890;2022-10-16T02:59:16;11.80;99.90
66728;DHT22;53641;44.274;19.890;2022-10-16T03:01:51;11.70;99.90
66728;DHT22;53641;44.274;19.890;2022-10-16T03:04:22;11.70;99.90
66728;DHT22;53641;44.274;19.890;2022-10-16T03:07:04;11.70;99.90
66728;DHT22;53641;44.274;19.890;2022-10-16T03:09:56;11.60;99.90
66728;DHT22;53641;44.274;19.890;2022-10-16T03:12:34;11.60;99.90
66728;DHT22;53641;44.274;19.890;2022-10-16T03:15:02;11.50;99.90
66728;DHT22;53641;44.274;19.890;2022-10-16T03:17:39;11.40;99.90
66728;DHT22;53641;44.274;19.890;2022-10-16T03:20:13;11.40;99.90
66728;DHT22;53641;44.274;19.890;2022-10-16T03:22:48;11.30;99.90
66728;DHT22;53641;44.274;19.890;2022-10-16T03:25:17;11.20;99.90
66728;DHT22;53641;44.274;19.890;2022-10-16T03:27:53;11.20;99.90
66728;DHT22;53641;44.274;19.890;2022-10-16T03:30:18;11.20;99.90
66728;DHT22;53641;44.274;19.890;2022-10-16T03:32:49;11.10;99.90
66728;DHT22;53641;44.274;19.890;2022-10-16T03:35:28;11.00;99.90
66728;DHT22;53641;44.274;19.890;2022-10-16T03:38:12;11.20;99.90
66728;DHT22;53641;44.274;19.890;2022-10-16T03:40:41;11.20;99.90
66728;DHT22;53641;44.274;19.890;2022-10-16T03:43:12;11.10;99.90
66728;DHT22;53641;44.274;19.890;2022-10-16T03:45:38;11.00;99.90
66728;DHT22;53641;44.274;19.890;2022-10-16T03:48:18;11.00;99.90
66728;DHT22;53641;44.274;19.890;2022-10-16T03:50:55;11.00;99.90
66728;DHT22;53641;44.274;19.890;2022-10-16T03:53:24;10.90;99.90
66728;DHT22;53641;44.274;19.890;2022-10-16T03:56:14;11.00;99.90
66728;DHT22;53641;44.274;19.890;2022-10-16T03:59:01;10.90;99.90
66728;DHT22;53641;44.274;19.890;2022-10-16T04:01:27;11.00;99.90
66728;DHT22;53641;44.274;19.890;2022-10-16T04:03:57;11.00;99.90
66728;DHT22;53641;44.274;19.890;2022-10-16T04:06:27;10.90;99.90
66728;DHT22;53641;44.274;19.890;2022-10-16T04:09:04;11.00;99.90
66728;DHT22;53641;44.274;19.890;2022-10-16T04:11:30;11.00;99.90
66728;DHT22;53641;44.274;19.890;2022-10-16T04:14:04;11.00;99.90
66728;DHT22;53641;44.274;19.890;2022-10-16T04:16:33;11.00;99.90
66728;DHT22;53641;44.274;19.890;2022-10-16T04:19:01;11.00;99.90
66728;DHT22;53641;44.274;19.890;2022-10-16T04:21:32;11.00;99.90
66728;DHT22;53641;44.274;19.890;2022-10-16T04:23:58;11.00;99.90
66728;DHT22;53641;44.274;19.890;2022-10-16T04:26:27;11.00;99.90
66728;DHT22;53641;44.274;19.890;2022-10-16T04:29:18;11.00;99.90
66728;DHT22;53641;44.274;19.890;2022-10-16T04:32:05;11.00;99.90
66728;DHT22;53641;44.274;19.890;2022-10-16T04:34:34;10.90;99.90
66728;DHT22;53641;44.274;19.890;2022-10-16T04:37:07;10.90;99.90
66728;DHT22;53641;44.274;19.890;2022-10-16T04:39:38;10.90;99.90
66728;DHT22;53641;44.274;19.890;2022-10-16T04:42:24;10.90;99.90
66728;DHT22;53641;44.274;19.890;2022-10-16T04:44:54;10.80;99.90
66728;DHT22;53641;44.274;19.890;2022-10-16T04:47:23;10.80;99.90
66728;DHT22;53641;44.274;19.890;2022-10-16T04:49:54;10.80;99.90
66728;DHT22;53641;44.274;19.890;2022-10-16T04:52:36;10.80;99.90
66728;DHT22;53641;44.274;19.890;2022-10-16T04:55:19;10.80;99.90
66728;DHT22;53641;44.274;19.890;2022-10-16T04:57:47;10.80;99.90
66728;DHT22;53641;44.274;19.890;2022-10-16T05:03:01;10.70;99.90
66728;DHT22;53641;44.274;19.890;2022-10-16T05:05:36;10.70;99.90
66728;DHT22;53641;44.274;19.890;2022-10-16T05:08:07;10.80;99.90
66728;DHT22;53641;44.274;19.890;2022-10-16T05:10:43;10.80;99.90
66728;DHT22;53641;44.274;19.890;2022-10-16T05:13:09;10.80;99.90
66728;DHT22;53641;44.274;19.890;2022-10-16T05:15:46;10.80;99.90
66728;DHT22;53641;44.274;19.890;2022-10-16T05:18:14;10.80;99.90
66728;DHT22;53641;44.274;19.890;2022-10-16T05:20:40;10.90;99.90
66728;DHT22;53641;44.274;19.890;2022-10-16T05:23:11;10.80;99.90
66728;DHT22;53641;44.274;19.890;2022-10-16T05:25:52;10.80;99.90
66728;DHT22;53641;44.274;19.890;2022-10-16T05:28:47;10.80;99.90
66728;DHT22;53641;44.274;19.890;2022-10-16T05:31:21;10.90;99.90
66728;DHT22;53641;44.274;19.890;2022-10-16T05:33:51;10.90;99.90
66728;DHT22;53641;44.274;19.890;2022-10-16T05:36:23;10.90;99.90
66728;DHT22;53641;44.274;19.890;2022-10-16T05:38:52;10.90;99.90
66728;DHT22;53641;44.274;19.890;2022-10-16T05:41:28;11.00;99.90
66728;DHT22;53641;44.274;19.890;2022-10-16T05:44:28;11.00;99.90
66728;DHT22;53641;44.274;19.890;2022-10-16T05:46:51;11.10;99.90
66728;DHT22;53641;44.274;19.890;2022-10-16T05:49:19;11.00;99.90
66728;DHT22;53641;44.274;19.890;2022-10-16T05:52:00;11.10;99.90
66728;DHT22;53641;44.274;19.890;2022-10-16T05:54:40;11.10;99.90
66728;DHT22;53641;44.274;19.890;2022-10-16T05:57:25;11.10;99.90
66728;DHT22;53641;44.274;19.890;2022-10-16T05:59:53;11.20;99.90
66728;DHT22;53641;44.274;19.890;2022-10-16T06:02:36;11.30;99.90
66728;DHT22;53641;44.274;19.890;2022-10-16T06:05:17;11.30;99.90
66728;DHT22;53641;44.274;19.890;2022-10-16T06:07:46;11.30;99.90
66728;DHT22;53641;44.274;19.890;2022-10-16T06:10:17;11.40;99.90
66728;DHT22;53641;44.274;19.890;2022-10-16T06:12:49;11.40;99.90
66728;DHT22;53641;44.274;19.890;2022-10-16T06:15:17;11.40;99.90
66728;DHT22;53641;44.274;19.890;2022-10-16T06:18:07;11.50;99.90
66728;DHT22;53641;44.274;19.890;2022-10-16T06:20:55;11.50;99.90
66728;DHT22;53641;44.274;19.890;2022-10-16T06:23:34;11.60;99.90
66728;DHT22;53641;44.274;19.890;2022-10-16T06:26:06;11.80;99.90
66728;DHT22;53641;44.274;19.890;2022-10-16T06:29:47;11.80;99.90
66728;DHT22;53641;44.274;19.890;2022-10-16T06:35:48;12.80;99.90
66728;DHT22;53641;44.274;19.890;2022-10-16T06:38:52;13.80;99.90
66728;DHT22;53641;44.274;19.890;2022-10-16T06:55:45;17.10;99.90
66728;DHT22;53641;44.274;19.890;2022-10-16T07:26:39;20.50;96.90
66728;DHT22;53641;44.274;19.890;2022-10-16T07:29:50;20.60;96.00
66728;DHT22;53641;44.274;19.890;2022-10-16T07:36:42;20.70;95.10
66728;DHT22;53641;44.274;19.890;2022-10-16T07:40:13;20.50;95.10
66728;DHT22;53641;44.274;19.890;2022-10-16T08:16:59;21.30;93.40
66728;DHT22;53641;44.274;19.890;2022-10-16T08:26:19;21.50;93.50
66728;DHT22;53641;44.274;19.890;2022-10-16T08:29:14;21.40;93.20
66728;DHT22;53641;44.274;19.890;2022-10-16T08:32:05;21.20;93.30
66728;DHT22;53641;44.274;19.890;2022-10-16T08:34:49;20.80;92.80
66728;DHT22;53641;44.274;19.890;2022-10-16T08:38:12;20.60;93.70
66728;DHT22;53641;44.274;19.890;2022-10-16T08:41:18;20.70;94.00
66728;DHT22;53641;44.274;19.890;2022-10-16T08:44:30;20.80;94.70
66728;DHT22;53641;44.274;19.890;2022-10-16T08:47:48;20.90;93.40
66728;DHT22;53641;44.274;19.890;2022-10-16T08:50:26;21.00;93.50
66728;DHT22;53641;44.274;19.890;2022-10-16T08:56:26;20.90;94.30
66728;DHT22;53641;44.274;19.890;2022-10-16T08:58:57;21.00;92.80
66728;DHT22;53641;44.274;19.890;2022-10-16T09:01:44;21.10;93.10
66728;DHT22;53641;44.274;19.890;2022-10-16T09:12:57;21.20;93.10
66728;DHT22;53641;44.274;19.890;2022-10-16T09:15:29;21.30;93.50
66728;DHT22;53641;44.274;19.890;2022-10-16T09:21:20;21.20;92.00
66728;DHT22;53641;44.274;19.890;2022-10-16T09:23:53;21.20;92.70
66728;DHT22;53641;44.274;19.890;2022-10-16T09:27:13;21.20;92.50
66728;DHT22;53641;44.274;19.890;2022-10-16T09:33:51;21.30;93.20
66728;DHT22;53641;44.274;19.890;2022-10-16T09:36:54;21.20;92.20
66728;DHT22;53641;44.274;19.890;2022-10-16T09:40:38;21.30;92.10
66728;DHT22;53641;44.274;19.890;2022-10-16T09:43:57;21.40;92.00
66728;DHT22;53641;44.274;19.890;2022-10-16T09:47:24;21.20;90.80
66728;DHT22;53641;44.274;19.890;2022-10-16T09:50:24;21.20;90.80
66728;DHT22;53641;44.274;19.890;2022-10-16T09:57:27;21.00;90.90
66728;DHT22;53641;44.274;19.890;2022-10-16T10:00:36;21.10;90.60
66728;DHT22;53641;44.274;19.890;2022-10-16T10:03:12;21.20;91.50
66728;DHT22;53641;44.274;19.890;2022-10-16T10:06:14;21.20;90.80
66728;DHT22;53641;44.274;19.890;2022-10-16T10:09:22;21.10;91.30
66728;DHT22;53641;44.274;19.890;2022-10-16T10:12:47;21.00;91.10
66728;DHT22;53641;44.274;19.890;2022-10-16T10:15:52;20.90;91.90
66728;DHT22;53641;44.274;19.890;2022-10-16T10:22:44;20.70;91.20
66728;DHT22;53641;44.274;19.890;2022-10-16T10:26:07;20.70;91.80
66728;DHT22;53641;44.274;19.890;2022-10-16T10:32:13;20.80;92.40
66728;DHT22;53641;44.274;19.890;2022-10-16T10:35:34;20.60;91.50
66728;DHT22;53641;44.274;19.890;2022-10-16T10:45:49;20.70;91.00
66728;DHT22;53641;44.274;19.890;2022-10-16T10:50:24;20.60;91.00
66728;DHT22;53641;44.274;19.890;2022-10-16T11:03:12;20.90;91.30
66728;DHT22;53641;44.274;19.890;2022-10-16T11:10:15;21.00;91.10
66728;DHT22;53641;44.274;19.890;2022-10-16T11:13:19;21.00;91.20
66728;DHT22;53641;44.274;19.890;2022-10-16T11:58:41;21.40;91.10
66728;DHT22;53641;44.274;19.890;2022-10-16T12:09:00;21.50;90.10
66728;DHT22;53641;44.274;19.890;2022-10-16T12:25:44;21.50;85.30
66728;DHT22;53641;44.274;19.890;2022-10-16T12:29:12;21.60;85.80
66728;DHT22;53641;44.274;19.890;2022-10-16T12:31:57;21.60;87.60
66728;DHT22;53641;44.274;19.890;2022-10-16T12:34:42;21.70;87.40
66728;DHT22;53641;44.274;19.890;2022-10-16T12:41:24;21.70;86.80
66728;DHT22;53641;44.274;19.890;2022-10-16T12:48:36;21.60;85.60
66728;DHT22;53641;44.274;19.890;2022-10-16T12:59:48;21.70;86.70
66728;DHT22;53641;44.274;19.890;2022-10-16T13:03:48;21.70;86.50
66728;DHT22;53641;44.274;19.890;2022-10-16T13:09:07;21.80;86.80
66728;DHT22;53641;44.274;19.890;2022-10-16T13:29:48;21.70;86.20
66728;DHT22;53641;44.274;19.890;2022-10-16T13:43:38;21.50;87.00
66728;DHT22;53641;44.274;19.890;2022-10-16T13:46:42;21.50;87.90
66728;DHT22;53641;44.274;19.890;2022-10-16T13:53:06;21.50;86.90
66728;DHT22;53641;44.274;19.890;2022-10-16T14:02:43;21.50;87.40
66728;DHT22;53641;44.274;19.890;2022-10-16T14:09:51;21.30;87.70
66728;DHT22;53641;44.274;19.890;2022-10-16T14:30:12;21.10;89.70
66728;DHT22;53641;44.274;19.890;2022-10-16T14:36:57;21.00;90.00
66728;DHT22;53641;44.274;19.890;2022-10-16T14:40:13;21.00;90.50
66728;DHT22;53641;44.274;19.890;2022-10-16T14:46:48;20.90;90.80
66728;DHT22;53641;44.274;19.890;2022-10-16T14:49:20;20.70;90.60
66728;DHT22;53641;44.274;19.890;2022-10-16T14:55:41;20.60;90.60
66728;DHT22;53641;44.274;19.890;2022-10-16T14:58:47;20.60;90.60
66728;DHT22;53641;44.274;19.890;2022-10-16T15:08:29;20.50;90.90
66728;DHT22;53641;44.274;19.890;2022-10-16T15:11:18;20.40;91.20
66728;DHT22;53641;44.274;19.890;2022-10-16T15:14:19;20.30;91.30
66728;DHT22;53641;44.274;19.890;2022-10-16T15:34:47;19.70;92.60
66728;DHT22;53641;44.274;19.890;2022-10-16T15:37:38;19.50;93.10
66728;DHT22;53641;44.274;19.890;2022-10-16T15:47:31;19.20;94.00
66728;DHT22;53641;44.274;19.890;2022-10-16T15:50:15;19.10;94.20
66728;DHT22;53641;44.274;19.890;2022-10-16T15:56:58;18.90;94.70
66728;DHT22;53641;44.274;19.890;2022-10-16T15:59:57;18.80;95.00
66728;DHT22;53641;44.274;19.890;2022-10-16T16:03:05;18.60;95.20
66728;DHT22;53641;44.274;19.890;2022-10-16T16:06:26;18.60;95.30
66728;DHT22;53641;44.274;19.890;2022-10-16T16:12:48;18.40;95.70
66728;DHT22;53641;44.274;19.890;2022-10-16T16:19:55;18.20;96.40
66728;DHT22;53641;44.274;19.890;2022-10-16T16:22:43;18.20;97.10
66728;DHT22;53641;44.274;19.890;2022-10-16T16:26:20;18.10;97.80
66728;DHT22;53641;44.274;19.890;2022-10-16T16:35:21;17.80;98.80
66728;DHT22;53641;44.274;19.890;2022-10-16T16:49:17;17.50;99.90
66728;DHT22;53641;44.274;19.890;2022-10-16T16:55:26;17.40;99.90
66728;DHT22;53641;44.274;19.890;2022-10-16T17:05:28;17.20;99.90
66728;DHT22;53641;44.274;19.890;2022-10-16T17:12:08;17.00;99.90
66728;DHT22;53641;44.274;19.890;2022-10-16T17:19:23;16.90;99.90
66728;DHT22;53641;44.274;19.890;2022-10-16T17:36:49;16.50;99.90
66728;DHT22;53641;44.274;19.890;2022-10-16T17:53:44;16.10;99.90
66728;DHT22;53641;44.274;19.890;2022-10-16T17:56:42;16.00;99.90
66728;DHT22;53641;44.274;19.890;2022-10-16T17:59:53;16.00;99.90
66728;DHT22;53641;44.274;19.890;2022-10-16T18:20:20;15.80;99.90
66728;DHT22;53641;44.274;19.890;2022-10-16T18:51:04;15.40;99.90
66728;DHT22;53641;44.274;19.890;2022-10-16T18:58:23;15.30;99.90
66728;DHT22;53641;44.274;19.890;2022-10-16T19:05:02;15.20;99.90
66728;DHT22;53641;44.274;19.890;2022-10-16T19:11:37;15.20;99.90
66728;DHT22;53641;44.274;19.890;2022-10-16T19:15:10;15.10;99.90
66728;DHT22;53641;44.274;19.890;2022-10-16T19:18:06;15.10;99.90
66728;DHT22;53641;44.274;19.890;2022-10-16T19:21:30;15.00;99.90
66728;DHT22;53641;44.274;19.890;2022-10-16T19:34:51;15.00;99.90
66728;DHT22;53641;44.274;19.890;2022-10-16T20:31:36;15.00;99.90
66728;DHT22;53641;44.274;19.890;2022-10-16T20:38:03;14.30;99.90
66728;DHT22;53641;44.274;19.890;2022-10-16T20:41:09;14.30;99.90
66728;DHT22;53641;44.274;19.890;2022-10-16T20:44:14;14.20;99.90
66728;DHT22;53641;44.274;19.890;2022-10-16T20:47:11;14.10;99.90
66728;DHT22;53641;44.274;19.890;2022-10-16T20:52:59;14.00;99.90
66728;DHT22;53641;44.274;19.890;2022-10-16T20:55:58;14.10;99.90
66728;DHT22;53641;44.274;19.890;2022-10-16T21:09:15;13.90;99.90
66728;DHT22;53641;44.274;19.890;2022-10-16T21:17:54;13.80;99.90
66728;DHT22;53641;44.274;19.890;2022-10-16T21:31:16;13.60;99.90
66728;DHT22;53641;44.274;19.890;2022-10-16T21:53:57;14.00;99.90
66728;DHT22;53641;44.274;19.890;2022-10-16T21:57:10;13.90;99.90
66728;DHT22;53641;44.274;19.890;2022-10-16T21:59:51;13.80;99.90
66728;DHT22;53641;44.274;19.890;2022-10-16T22:05:41;13.50;99.90
66728;DHT22;53641;44.274;19.890;2022-10-16T22:08:16;13.40;99.90
66728;DHT22;53641;44.274;19.890;2022-10-16T22:10:42;13.30;99.90
66728;DHT22;53641;44.274;19.890;2022-10-16T22:13:25;13.20;99.90
66728;DHT22;53641;44.274;19.890;2022-10-16T22:16:24;13.20;99.90
66728;DHT22;53641;44.274;19.890;2022-10-16T22:18:57;13.20;99.90
66728;DHT22;53641;44.274;19.890;2022-10-16T22:21:49;13.10;99.90
66728;DHT22;53641;44.274;19.890;2022-10-16T22:24:29;13.10;99.90
66728;DHT22;53641;44.274;19.890;2022-10-16T22:27:31;13.10;99.90
66728;DHT22;53641;44.274;19.890;2022-10-16T22:30:12;13.10;99.90
66728;DHT22;53641;44.274;19.890;2022-10-16T22:32:41;13.00;99.90
66728;DHT22;53641;44.274;19.890;2022-10-16T22:35:13;13.00;99.90
66728;DHT22;53641;44.274;19.890;2022-10-16T22:37:50;13.00;99.90
66728;DHT22;53641;44.274;19.890;2022-10-16T22:40:18;13.00;99.90
66728;DHT22;53641;44.274;19.890;2022-10-16T22:42:44;12.90;99.90
66728;DHT22;53641;44.274;19.890;2022-10-16T22:45:33;12.90;99.90
66728;DHT22;53641;44.274;19.890;2022-10-16T22:48:24;13.00;99.90
66728;DHT22;53641;44.274;19.890;2022-10-16T22:51:02;12.90;99.90
66728;DHT22;53641;44.274;19.890;2022-10-16T22:53:34;12.90;99.90
66728;DHT22;53641;44.274;19.890;2022-10-16T22:56:16;12.80;99.90
66728;DHT22;53641;44.274;19.890;2022-10-16T22:59:19;12.90;99.90
66728;DHT22;53641;44.274;19.890;2022-10-16T23:02:09;12.90;99.90
66728;DHT22;53641;44.274;19.890;2022-10-16T23:04:59;12.90;99.90
66728;DHT22;53641;44.274;19.890;2022-10-16T23:08:09;12.80;99.90
66728;DHT22;53641;44.274;19.890;2022-10-16T23:10:46;12.80;99.90
66728;DHT22;53641;44.274;19.890;2022-10-16T23:13:16;12.80;99.90
66728;DHT22;53641;44.274;19.890;2022-10-16T23:16:21;12.70;99.90
66728;DHT22;53641;44.274;19.890;2022-10-16T23:19:03;12.60;99.90
66728;DHT22;53641;44.274;19.890;2022-10-16T23:22:00;12.60;99.90
66728;DHT22;53641;44.274;19.890;2022-10-16T23:24:48;12.60;99.90
66728;DHT22;53641;44.274;19.890;2022-10-16T23:28:31;12.60;99.90
66728;DHT22;53641;44.274;19.890;2022-10-16T23:35:13;12.50;99.90
66728;DHT22;53641;44.274;19.890;2022-10-16T23:38:11;12.50;99.90
66728;DHT22;53641;44.274;19.890;2022-10-16T23:41:18;12.50;99.90
66728;DHT22;53641;44.274;19.890;2022-10-16T23:47:30;12.40;99.90
66728;DHT22;53641;44.274;19.890;2022-10-16T23:50:37;12.40;99.90
66728;DHT22;53641;44.274;19.890;2022-10-16T23:53:24;12.30;99.90
66728;DHT22;53641;44.274;19.890;2022-10-16T23:56:31;12.30;99.90
66728;DHT22;53641;44.274;19.890;2022-10-16T23:59:22;12.30;99.90
